< < Back
Terminal Aerodrome Forecast


Current Version              Previous Versions:   1  2  3  4  5  6  7  8  9  

Terminal Aerodrome Forecast

103
FTUS42 KTAE 200500
TAFVLD
TAF
KVLD 200520Z 2006/2106 02003KT P6SM SKC=

Latest METAR

160
SAUS70 KWBC 202058
MTRVLD
METAR KVLD 202053Z 00000KT 10SM CLR 18/M01 A3021 RMK AO2 SLP240
T01781006 56020 $


USA.gov is the U.S. government's official web portal to all federal, state and local government web resources and services.